Metar GG30 METAR message from awiacja.imgw.pl Metar G30 EPPO METAR EPPO 201530Z 19010KT CAVOK 07/M02 Q1017 =